Time;durP1;ratioP1;P1;durP2;ratioP2;P2;SDS_P1;SDS_P2;PMS_P1;PMS_P2;Temp;Humidity;BMP_temperature;BMP_pressure;BME280_temperature;BME280_humidity;BME280_pressure;Samples;Min_cycle;Max_cycle;Signal;HPM_P1;HPM_P2
2023/07/14 00:01:35;;;;;;;7.60;4.60;;;;;;;20.58;100.00;100555.58;105605;1256;64231;-45
2023/07/14 00:04:10;;;;;;;12.40;5.30;;;;;;;20.58;100.00;100540.63;105630;1255;71407;-45
2023/07/14 00:06:40;;;;;;;11.10;3.40;;;;;;;20.59;100.00;100533.05;105698;1257;61655;-44
2023/07/14 00:09:25;;;;;;;17.60;5.40;;;;;;;20.59;100.00;100522.73;105618;1258;60341;-44
2023/07/14 00:11:53;;;;;;;30.70;6.60;;;;;;;20.57;100.00;100518.95;105714;1258;73785;-45
2023/07/14 00:14:21;;;;;;;24.80;5.90;;;;;;;20.55;100.00;100511.70;105596;1259;64172;-45
2023/07/14 00:16:49;;;;;;;15.40;4.40;;;;;;;20.55;100.00;100517.86;105547;1261;70820;-44
2023/07/14 00:19:17;;;;;;;6.60;4.90;;;;;;;20.54;100.00;100524.41;105529;1255;60557;-45
2023/07/14 00:21:46;;;;;;;8.20;4.40;;;;;;;20.53;100.00;100522.34;105645;1255;60394;-47
2023/07/14 00:24:15;;;;;;;15.50;5.50;;;;;;;20.53;100.00;100520.95;105741;1259;73836;-43
2023/07/14 00:26:46;;;;;;;9.10;4.80;;;;;;;20.52;100.00;100516.95;105698;1259;64063;-44
2023/07/14 00:29:26;;;;;;;10.30;4.90;;;;;;;20.51;100.00;100514.40;105690;1258;72638;-44
2023/07/14 00:31:55;;;;;;;12.80;4.80;;;;;;;20.51;100.00;100507.05;105694;1259;60469;-45
2023/07/14 00:34:23;;;;;;;9.70;4.50;;;;;;;20.52;100.00;100502.23;105660;1258;60522;-44
2023/07/14 00:36:51;;;;;;;12.00;5.10;;;;;;;20.54;100.00;100496.19;105632;1254;71628;-45
2023/07/14 00:39:20;;;;;;;17.50;5.20;;;;;;;20.56;100.00;100482.22;105642;1254;64237;-44
2023/07/14 00:41:47;;;;;;;14.00;5.30;;;;;;;20.59;100.00;100473.13;105617;1260;71829;-44
2023/07/14 00:44:15;;;;;;;14.30;5.70;;;;;;;20.61;100.00;100464.58;105694;1260;60451;-45
2023/07/14 00:46:44;;;;;;;12.20;5.00;;;;;;;20.63;100.00;100454.09;105579;1262;60419;-44
2023/07/14 00:49:30;;;;;;;11.90;4.80;;;;;;;20.65;100.00;100449.42;105653;1259;73740;-45
2023/07/14 00:52:06;;;;;;;12.60;4.90;;;;;;;20.67;100.00;100439.15;105647;1259;65248;-45
2023/07/14 00:54:37;;;;;;;13.50;5.60;;;;;;;20.68;100.00;100436.05;105600;1260;71422;-46
2023/07/14 00:57:15;;;;;;;12.50;4.80;;;;;;;20.71;100.00;100435.92;105770;1255;60907;-45
2023/07/14 00:59:43;;;;;;;12.50;4.80;;;;;;;20.73;100.00;100432.15;105677;1259;60412;-45
2023/07/14 01:02:11;;;;;;;14.00;4.80;;;;;;;20.73;100.00;100436.85;105590;1260;72643;-44
2023/07/14 01:04:41;;;;;;;11.30;5.00;;;;;;;20.73;100.00;100433.69;105618;1260;65169;-45
2023/07/14 01:07:09;;;;;;;11.10;5.60;;;;;;;20.73;100.00;100436.16;105678;1260;71395;-45
2023/07/14 01:09:39;;;;;;;11.50;5.10;;;;;;;20.72;100.00;100426.06;105609;1254;60542;-44
2023/07/14 01:12:08;;;;;;;16.90;5.80;;;;;;;20.70;100.00;100415.13;105632;1260;60390;-44
2023/07/14 01:14:39;;;;;;;12.00;5.00;;;;;;;20.68;100.00;100406.97;105684;1255;72822;-44
2023/07/14 01:17:06;;;;;;;14.30;5.20;;;;;;;20.66;100.00;100404.47;105736;1259;65248;-44
2023/07/14 01:19:39;;;;;;;12.80;5.40;;;;;;;20.64;100.00;100392.33;105611;1264;71495;-44
2023/07/14 01:22:16;;;;;;;10.40;5.60;;;;;;;20.62;100.00;100389.81;105624;1256;61675;-45
2023/07/14 01:24:52;;;;;;;13.50;5.90;;;;;;;20.63;100.00;100387.34;105682;1262;60438;-45
2023/07/14 01:27:19;;;;;;;9.40;5.40;;;;;;;20.64;100.00;100375.54;105630;1254;72600;-43
2023/07/14 01:29:47;;;;;;;9.80;5.30;;;;;;;20.65;100.00;100366.68;105668;1259;64011;-45
2023/07/14 01:32:16;;;;;;;7.40;5.20;;;;;;;20.66;100.00;100353.98;105586;1260;72684;-45
2023/07/14 01:34:45;;;;;;;10.50;6.00;;;;;;;20.67;100.00;100347.25;105737;1260;60440;-44
2023/07/14 01:37:17;;;;;;;11.40;6.40;;;;;;;20.67;100.00;100340.59;105695;1260;60427;-45
2023/07/14 01:39:45;;;;;;;16.70;6.50;;;;;;;20.65;100.00;100328.65;105562;1261;76143;-44
2023/07/14 01:42:13;;;;;;;10.40;5.60;;;;;;;20.60;100.00;100317.23;105598;1263;65805;-45
2023/07/14 01:44:43;;;;;;;15.30;6.10;;;;;;;20.55;100.00;100310.34;105567;1260;71621;-45
2023/07/14 01:47:11;;;;;;;18.50;6.60;;;;;;;20.50;100.00;100304.33;105597;1260;60620;-46
2023/07/14 01:49:49;;;;;;;12.70;7.20;;;;;;;20.47;100.00;100301.59;105592;1260;60392;-46
2023/07/14 01:52:21;;;;;;;18.80;7.10;;;;;;;20.43;100.00;100288.67;105823;1260;72598;-45
2023/07/14 01:54:51;;;;;;;16.20;6.60;;;;;;;20.40;100.00;100277.77;105695;1261;65470;-45
2023/07/14 01:57:22;;;;;;;16.00;7.00;;;;;;;20.38;100.00;100265.63;105548;1263;72697;-45
2023/07/14 02:00:00;;;;;;;12.50;7.00;;;;;;;20.37;100.00;100253.09;105640;1260;60515;-44
2023/07/14 02:02:41;;;;;;;13.60;7.30;;;;;;;20.35;100.00;100251.13;105591;1254;60361;-45
2023/07/14 02:05:18;;;;;;;17.10;8.10;;;;;;;20.34;100.00;100244.35;105664;1269;73810;-46
2023/07/14 02:07:47;;;;;;;18.70;8.30;;;;;;;20.34;100.00;100228.95;105612;1259;63462;-46
2023/07/14 02:10:17;;;;;;;17.00;7.70;;;;;;;20.33;100.00;100219.66;105611;1260;73110;-47
2023/07/14 02:12:46;;;;;;;15.50;7.40;;;;;;;20.34;100.00;100211.77;105613;1262;60541;-46
2023/07/14 02:15:17;;;;;;;14.20;8.00;;;;;;;20.34;100.00;100203.86;105703;1257;61182;-45
2023/07/14 02:17:45;;;;;;;15.10;8.10;;;;;;;20.34;100.00;100199.13;105698;1257;73792;-44
2023/07/14 02:20:28;;;;;;;14.20;7.90;;;;;;;20.33;100.00;100199.17;105606;1263;63938;-46
2023/07/14 02:22:56;;;;;;;16.40;7.80;;;;;;;20.32;100.00;100196.98;105690;1259;72607;-45
2023/07/14 02:25:26;;;;;;;15.30;9.00;;;;;;;20.31;100.00;100190.24;105465;1264;60552;-46
2023/07/14 02:27:54;;;;;;;18.20;8.30;;;;;;;20.30;100.00;100186.95;105636;1260;60364;-46
2023/07/14 02:30:22;;;;;;;15.40;9.30;;;;;;;20.29;100.00;100188.23;105656;1256;72593;-45
2023/07/14 02:32:55;;;;;;;16.20;9.40;;;;;;;20.30;100.00;100179.30;105598;1260;63952;-45
2023/07/14 02:35:33;;;;;;;14.10;9.00;;;;;;;20.30;100.00;100174.54;105389;1257;72627;-46
2023/07/14 02:38:03;;;;;;;25.80;9.10;;;;;;;20.31;100.00;100169.73;105394;1257;60587;-46
2023/07/14 02:40:46;;;;;;;14.30;8.10;;;;;;;20.32;100.00;100159.84;105657;1257;60433;-46
2023/07/14 02:43:16;;;;;;;14.40;8.10;;;;;;;20.35;100.00;100150.38;105577;1259;72535;-45
2023/07/14 02:45:47;;;;;;;16.20;8.40;;;;;;;20.37;100.00;100144.79;105654;1259;65497;-45
2023/07/14 02:48:21;;;;;;;16.00;7.80;;;;;;;20.41;100.00;100145.47;105690;1254;72635;-45
2023/07/14 02:50:48;;;;;;;17.30;8.70;;;;;;;20.42;100.00;100139.94;105623;1258;61640;-46
2023/07/14 02:53:17;;;;;;;13.20;8.20;;;;;;;20.44;100.00;100149.30;105634;1259;60379;-46
2023/07/14 02:55:45;;;;;;;15.40;8.10;;;;;;;20.45;100.00;100148.31;105592;1260;73740;-44
2023/07/14 02:58:13;;;;;;;14.90;9.20;;;;;;;20.47;100.00;100154.70;105629;1262;64033;-45
2023/07/14 03:00:41;;;;;;;15.10;8.20;;;;;;;20.48;100.00;100156.38;105687;1261;72681;-46
2023/07/14 03:03:09;;;;;;;14.40;8.00;;;;;;;20.50;100.00;100151.14;105640;1260;61655;-45
2023/07/14 03:05:37;;;;;;;23.30;8.00;;;;;;;20.54;100.00;100153.05;105674;1259;60358;-44
2023/07/14 03:08:07;;;;;;;15.80;9.00;;;;;;;20.57;100.00;100152.66;105550;1269;73828;-44
2023/07/14 03:10:35;;;;;;;20.60;9.20;;;;;;;20.60;100.00;100147.05;105607;1259;63199;-45
2023/07/14 03:13:03;;;;;;;16.50;8.70;;;;;;;20.63;100.00;100143.99;105545;1257;71396;-45
2023/07/14 03:15:30;;;;;;;19.80;8.70;;;;;;;20.67;100.00;100144.11;105560;1262;60553;-45
2023/07/14 03:18:00;;;;;;;20.50;8.50;;;;;;;20.73;100.00;100142.89;105576;1256;60441;-46
2023/07/14 03:20:27;;;;;;;19.30;8.60;;;;;;;20.77;100.00;100147.66;105652;1259;73769;-46
2023/07/14 03:22:55;;;;;;;16.40;8.80;;;;;;;20.82;100.00;100158.63;105627;1258;63911;-46
2023/07/14 03:25:23;;;;;;;18.50;8.50;;;;;;;20.84;100.00;100162.52;105555;1254;72714;-47
2023/07/14 03:27:51;;;;;;;22.00;9.20;;;;;;;20.85;100.00;100160.87;105587;1258;60558;-46
2023/07/14 03:30:19;;;;;;;24.90;8.90;;;;;;;20.87;100.00;100164.04;105551;1260;60346;-46
2023/07/14 03:32:47;;;;;;;17.90;9.70;;;;;;;20.88;100.00;100166.29;105665;1269;72858;-44
2023/07/14 03:35:18;;;;;;;12.70;8.50;;;;;;;20.90;100.00;100165.11;105657;1254;64380;-45
2023/07/14 03:37:46;;;;;;;22.90;9.90;;;;;;;20.92;100.00;100156.16;105653;1256;71374;-44
2023/07/14 03:40:14;;;;;;;20.60;10.00;;;;;;;20.94;100.00;100155.31;105748;1257;61647;-46
2023/07/14 03:42:43;;;;;;;21.40;10.40;;;;;;;20.97;100.00;100152.17;105611;1254;60565;-44
2023/07/14 03:45:11;;;;;;;17.00;9.90;;;;;;;21.03;100.00;100147.05;105642;1261;73846;-44
2023/07/14 03:47:39;;;;;;;18.80;10.50;;;;;;;21.08;100.00;100154.05;105617;1259;63920;-46
2023/07/14 03:50:08;;;;;;;23.10;11.40;;;;;;;21.14;100.00;100153.14;105633;1258;71395;-44
2023/07/14 03:52:35;;;;;;;19.50;10.30;;;;;;;21.20;100.00;100149.20;105617;1256;60434;-46
2023/07/14 03:55:04;;;;;;;24.30;11.00;;;;;;;21.27;100.00;100157.52;105666;1254;60558;-46
2023/07/14 03:57:31;;;;;;;27.10;11.00;;;;;;;21.37;100.00;100148.98;105659;1258;73803;-46
2023/07/14 04:00:05;;;;;;;31.20;11.40;;;;;;;21.51;100.00;100149.07;105660;1260;64189;-45
2023/07/14 04:02:45;;;;;;;23.20;10.90;;;;;;;21.73;100.00;100152.70;105656;1254;71814;-45
2023/07/14 04:05:13;;;;;;;15.90;10.40;;;;;;;21.95;100.00;100154.33;105652;1260;60708;-46
2023/07/14 04:07:42;;;;;;;20.50;12.10;;;;;;;22.19;100.00;100168.78;105701;1257;60388;-48
2023/07/14 04:10:10;;;;;;;19.80;11.80;;;;;;;22.41;100.00;100187.60;105725;1257;73950;-44
2023/07/14 04:12:38;;;;;;;18.80;10.70;;;;;;;22.60;100.00;100216.16;105709;1254;64946;-45
2023/07/14 04:15:06;;;;;;;19.00;10.70;;;;;;;22.80;100.00;100251.05;105636;1257;73738;-46
2023/07/14 04:17:36;;;;;;;21.60;11.60;;;;;;;23.01;100.00;100291.56;105605;1255;60502;-47
2023/07/14 04:20:05;;;;;;;18.80;11.30;;;;;;;23.18;100.00;100331.50;105636;1254;60619;-45
2023/07/14 04:22:33;;;;;;;19.80;11.60;;;;;;;23.30;100.00;100370.48;105681;1259;73027;-45
2023/07/14 04:25:02;;;;;;;19.80;10.80;;;;;;;23.44;100.00;100411.73;105675;1259;63992;-45
2023/07/14 04:27:33;;;;;;;21.10;11.50;;;;;;;23.53;100.00;100434.26;105669;1257;71431;-47
2023/07/14 04:30:03;;;;;;;20.60;11.00;;;;;;;23.65;100.00;100444.17;105616;1259;61110;-48
2023/07/14 04:32:31;;;;;;;19.20;10.90;;;;;;;23.77;100.00;100444.31;105688;1254;60601;-47
2023/07/14 04:34:59;;;;;;;17.20;11.50;;;;;;;23.91;100.00;100438.75;105600;1255;73892;-44
2023/07/14 04:37:27;;;;;;;20.50;10.80;;;;;;;24.01;100.00;100419.85;105614;1254;63926;-46
2023/07/14 04:39:54;;;;;;;15.70;10.50;;;;;;;24.19;100.00;100419.90;105605;1261;71457;-47
2023/07/14 04:42:23;;;;;;;18.70;11.50;;;;;;;24.33;100.00;100386.58;105645;1254;60499;-45
2023/07/14 04:44:51;;;;;;;25.10;11.30;;;;;;;24.49;100.00;100354.84;105776;1254;60651;-47
2023/07/14 04:47:18;;;;;;;18.30;11.10;;;;;;;24.69;100.00;100312.37;105805;1254;72741;-47
2023/07/14 04:49:47;;;;;;;19.20;11.80;;;;;;;24.88;100.00;100259.12;105796;1252;63805;-47
2023/07/14 04:52:15;;;;;;;20.80;11.70;;;;;;;25.04;100.00;100196.64;105521;1256;70963;-44
2023/07/14 04:54:43;;;;;;;20.70;11.80;;;;;;;25.13;100.00;100121.73;105543;1254;60468;-49
2023/07/14 04:57:10;;;;;;;15.70;12.50;;;;;;;25.10;100.00;100046.47;105413;1254;60360;-47
2023/07/14 04:59:38;;;;;;;22.60;12.30;;;;;;;25.01;100.00;100019.20;105608;1254;73923;-47
2023/07/14 05:02:07;;;;;;;19.10;12.40;;;;;;;24.95;100.00;100028.96;105687;1260;65275;-47
2023/07/14 05:04:39;;;;;;;21.50;12.90;;;;;;;24.95;100.00;100024.61;105666;1254;71438;-43
2023/07/14 05:07:26;;;;;;;22.80;12.50;;;;;;;24.85;100.00;99990.75;105615;1259;60491;-46
2023/07/14 05:09:54;;;;;;;22.70;12.70;;;;;;;24.72;100.00;100001.50;105624;1254;60571;-44
2023/07/14 05:12:22;;;;;;;22.90;13.50;;;;;;;24.70;100.00;100044.69;105624;1257;72339;-44
2023/07/14 05:14:49;;;;;;;19.10;11.40;;;;;;;24.74;100.00;100068.91;105615;1259;63937;-44
2023/07/14 05:17:17;;;;;;;24.70;12.20;;;;;;;24.78;100.00;100072.08;105579;1265;71503;-46
2023/07/14 05:19:45;;;;;;;16.10;11.40;;;;;;;24.86;100.00;100050.10;105677;1255;60465;-43
2023/07/14 05:22:12;;;;;;;16.90;11.50;;;;;;;24.89;100.00;100043.84;105700;1258;60526;-46
2023/07/14 05:24:40;;;;;;;16.30;12.00;;;;;;;24.90;100.00;100033.29;105583;1255;74254;-46
2023/07/14 05:27:08;;;;;;;18.30;12.00;;;;;;;24.87;100.00;100029.50;105538;1260;65143;-45
2023/07/14 05:29:35;;;;;;;22.60;11.70;;;;;;;24.82;100.00;100024.63;105560;1258;73115;-45
2023/07/14 05:32:04;;;;;;;21.90;11.90;;;;;;;24.69;100.00;100024.17;105610;1254;61651;-43
2023/07/14 05:34:31;;;;;;;23.80;12.20;;;;;;;24.57;100.00;100052.13;105715;1257;60406;-44
2023/07/14 05:36:59;;;;;;;22.20;13.10;;;;;;;24.46;100.00;100073.27;105652;1260;74026;-43
2023/07/14 05:39:27;;;;;;;23.30;12.50;;;;;;;24.40;100.00;100101.46;105630;1255;64273;-45
2023/07/14 05:41:58;;;;;;;27.40;13.60;;;;;;;24.40;100.00;100131.97;105565;1254;72615;-47
2023/07/14 05:44:26;;;;;;;22.90;13.70;;;;;;;24.36;100.00;100140.36;105570;1258;60569;-45
2023/07/14 05:46:54;;;;;;;25.80;13.50;;;;;;;24.30;100.00;100154.98;105598;1254;60348;-46
2023/07/14 05:49:23;;;;;;;21.20;13.70;;;;;;;24.24;100.00;100169.76;105563;1254;72590;-44
2023/07/14 05:51:51;;;;;;;18.60;11.60;;;;;;;24.26;100.00;100206.80;105570;1260;63963;-46
2023/07/14 05:54:20;;;;;;;24.10;11.50;;;;;;;24.27;100.00;100214.86;105614;1259;71633;-44
2023/07/14 05:56:48;;;;;;;22.10;12.00;;;;;;;24.27;100.00;100215.36;105707;1257;60566;-43
2023/07/14 05:59:16;;;;;;;17.10;12.20;;;;;;;24.28;100.00;100221.07;105686;1253;60538;-46
2023/07/14 06:01:47;;;;;;;19.20;11.50;;;;;;;24.30;100.00;100237.65;105596;1253;73790;-47
2023/07/14 06:04:15;;;;;;;21.40;11.10;;;;;;;24.34;100.00;100229.77;105636;1254;65180;-46
2023/07/14 06:06:43;;;;;;;25.60;10.60;;;;;;;24.36;100.00;100226.41;105658;1260;72629;-47
2023/07/14 06:09:14;;;;;;;20.80;11.60;;;;;;;24.39;100.00;100220.35;105665;1253;61684;-46
2023/07/14 06:11:42;;;;;;;17.40;11.40;;;;;;;24.37;100.00;100200.27;105715;1254;60513;-47
2023/07/14 06:14:11;;;;;;;18.60;10.90;;;;;;;24.29;100.00;100179.43;105696;1259;73406;-47
2023/07/14 06:16:39;;;;;;;24.40;11.30;;;;;;;24.21;100.00;100194.86;105633;1254;68135;-47
2023/07/14 06:19:07;;;;;;;19.60;11.50;;;;;;;24.20;100.00;100220.85;105575;1254;73078;-48
2023/07/14 06:21:35;;;;;;;14.30;11.70;;;;;;;24.22;100.00;100245.73;105658;1254;60654;-45
2023/07/14 06:24:03;;;;;;;19.00;11.60;;;;;;;24.28;100.00;100271.64;105750;1257;60560;-45
2023/07/14 06:26:30;;;;;;;17.50;11.20;;;;;;;24.32;100.00;100278.23;105845;1254;73810;-45
2023/07/14 06:28:58;;;;;;;16.70;11.20;;;;;;;24.37;100.00;100280.96;105674;1255;64000;-46
2023/07/14 06:31:26;;;;;;;18.00;11.80;;;;;;;24.35;100.00;100258.60;105742;1256;71889;-45
2023/07/14 06:33:54;;;;;;;22.80;12.20;;;;;;;24.34;100.00;100253.89;105699;1254;60559;-45
2023/07/14 06:36:22;;;;;;;22.50;10.90;;;;;;;24.37;100.00;100266.21;105647;1255;60316;-48
2023/07/14 06:38:50;;;;;;;20.10;10.50;;;;;;;24.39;100.00;100269.20;105578;1254;72683;-46
2023/07/14 06:41:18;;;;;;;22.10;10.80;;;;;;;24.47;100.00;100263.52;105622;1254;64349;-46
2023/07/14 06:43:45;;;;;;;17.60;11.10;;;;;;;24.56;100.00;100264.20;105591;1258;72585;-46
2023/07/14 06:46:14;;;;;;;20.30;10.80;;;;;;;24.56;100.00;100233.65;105463;1258;60443;-47
2023/07/14 06:48:45;;;;;;;17.00;10.30;;;;;;;24.59;100.00;100206.83;105603;1256;60531;-46
2023/07/14 06:51:16;;;;;;;18.40;10.70;;;;;;;24.69;100.00;100174.09;105332;1255;295011;-46
2023/07/14 06:56:00;;;;;;;23.60;11.40;;;;;;;24.98;100.00;100103.64;102745;1294;601065;-45
2023/07/14 06:58:29;;;;;;;18.20;10.70;;;;;;;25.11;100.00;100070.05;104780;1269;59414;-45
2023/07/14 07:00:56;;;;;;;18.60;10.30;;;;;;;25.23;100.00;100010.77;104669;1267;59285;-44
2023/07/14 07:03:25;;;;;;;17.90;10.90;;;;;;;25.30;100.00;99942.88;104855;1268;71098;-44
2023/07/14 07:05:54;;;;;;;19.00;10.80;;;;;;;25.32;100.00;99888.69;104723;1272;64445;-47
2023/07/14 07:08:22;;;;;;;20.40;11.10;;;;;;;25.40;100.00;99883.90;105349;1264;72664;-47
2023/07/14 07:10:50;;;;;;;20.80;10.70;;;;;;;25.47;100.00;99870.54;105360;1260;237329;-44
2023/07/14 07:13:18;;;;;;;19.20;10.20;;;;;;;25.51;100.00;99865.79;105351;1271;59514;-46
2023/07/14 07:15:46;;;;;;;17.20;10.10;;;;;;;25.49;100.00;99830.86;105525;1260;70992;-45
2023/07/14 07:18:18;;;;;;;15.40;10.70;;;;;;;25.34;100.00;99821.95;105580;1261;63941;-45
2023/07/14 07:20:46;;;;;;;15.20;10.50;;;;;;;25.20;100.00;99873.52;105602;1257;70686;-46
2023/07/14 07:23:14;;;;;;;17.00;9.80;;;;;;;25.14;100.00;99929.98;105381;1257;60413;-45
2023/07/14 07:25:47;;;;;;;16.30;10.80;;;;;;;25.06;100.00;99952.92;105231;1261;59827;-42
2023/07/14 07:28:14;;;;;;;16.10;10.20;;;;;;;24.98;100.00;99962.74;105426;1258;73044;-44
2023/07/14 07:30:43;;;;;;;18.30;10.90;;;;;;;24.99;100.00;99966.55;105380;1258;63817;-45
2023/07/14 07:33:12;;;;;;;19.90;9.90;;;;;;;25.17;100.00;99988.27;105440;1258;71430;-45
2023/07/14 07:35:43;;;;;;;23.00;10.60;;;;;;;25.33;100.00;99962.95;105503;1257;59792;-45
2023/07/14 07:38:11;;;;;;;17.70;10.70;;;;;;;25.42;100.00;99948.88;105327;1257;59540;-46
2023/07/14 07:40:40;;;;;;;16.60;10.40;;;;;;;25.52;100.00;99938.45;105408;1263;72558;-43
2023/07/14 07:43:08;;;;;;;19.40;10.10;;;;;;;25.61;100.00;99923.59;105388;1262;65162;-46
2023/07/14 07:45:36;;;;;;;18.60;10.00;;;;;;;25.62;100.00;99872.79;105418;1263;72651;-46
2023/07/14 07:48:05;;;;;;;16.60;9.90;;;;;;;25.59;100.00;99847.23;105535;1258;59755;-44
2023/07/14 07:50:33;;;;;;;24.50;11.40;;;;;;;25.70;100.00;99870.77;105445;1260;59981;-44
2023/07/14 07:53:01;;;;;;;21.40;11.60;;;;;;;25.79;100.00;99870.33;105480;1258;71850;-45
2023/07/14 07:55:28;;;;;;;24.40;11.50;;;;;;;25.81;100.00;99816.83;105444;1262;64031;-45
2023/07/14 07:57:56;;;;;;;16.40;10.90;;;;;;;25.81;100.00;99801.26;105216;1264;71403;-45
2023/07/14 08:00:25;;;;;;;22.60;11.30;;;;;;;25.72;100.00;99804.20;105206;1265;60480;-45
2023/07/14 08:02:52;;;;;;;20.80;12.80;;;;;;;25.51;100.00;99816.00;105526;1260;59632;-47
2023/07/14 08:05:20;;;;;;;25.60;13.00;;;;;;;25.27;100.00;99835.27;105545;1263;73011;-44
2023/07/14 08:07:49;;;;;;;26.20;13.00;;;;;;;25.15;100.00;99873.92;105455;1261;65252;-44
2023/07/14 08:10:17;;;;;;;21.30;13.60;;;;;;;25.12;100.00;99902.95;105306;1264;72636;-45
2023/07/14 08:12:45;;;;;;;21.40;12.50;;;;;;;25.08;100.00;99928.36;105419;1262;60401;-47
2023/07/14 08:15:13;;;;;;;20.00;13.50;;;;;;;25.06;100.00;99931.91;105444;1259;59568;-45
2023/07/14 08:17:52;;;;;;;25.90;13.40;;;;;;;25.02;100.00;99928.70;105386;1261;71800;-46
2023/07/14 08:20:21;;;;;;;30.10;14.40;;;;;;;25.01;100.00;99936.98;105303;1257;65322;-45
2023/07/14 08:22:48;;;;;;;19.80;13.50;;;;;;;25.01;100.00;99969.10;105507;1260;71637;-46
2023/07/14 08:25:16;;;;;;;21.40;14.10;;;;;;;25.01;100.00;99981.59;105384;1257;61655;-47
2023/07/14 08:27:45;;;;;;;22.70;14.40;;;;;;;25.04;100.00;99997.02;105433;1262;59660;-46
2023/07/14 08:30:13;;;;;;;26.20;15.20;;;;;;;25.27;100.00;100023.11;105232;1261;71969;-45
2023/07/14 08:32:40;;;;;;;23.50;16.30;;;;;;;25.50;100.00;100015.67;105226;1261;63481;-47
2023/07/14 08:35:09;;;;;;;24.70;16.80;;;;;;;25.54;100.00;99978.07;105500;1260;71947;-46
2023/07/14 08:37:37;;;;;;;35.00;19.40;;;;;;;25.33;100.00;99965.40;105200;1263;61671;-45
2023/07/14 08:40:06;;;;;;;28.60;18.10;;;;;;;24.94;100.00;100033.69;105197;1264;59581;-46
2023/07/14 08:42:38;;;;;;;27.80;17.00;;;;;;;24.58;100.00;100111.78;105333;1259;73000;-44
2023/07/14 08:45:26;;;;;;;20.00;13.70;;;;;;;24.28;100.00;100186.02;105246;1263;65778;-46
2023/07/14 08:48:22;;;;;;;17.50;10.30;;;;;;;24.11;100.00;100220.48;105204;1257;71734;-46
2023/07/14 08:50:52;;;;;;;9.10;6.60;;;;;;;24.03;100.00;100214.78;105375;1260;64505;-46
2023/07/14 08:53:26;;;;;;;5.30;4.70;;;;;;;23.98;100.00;100184.27;105457;1263;59705;-46
2023/07/14 08:55:59;;;;;;;4.20;3.70;;;;;;;23.96;100.00;100140.58;105233;1257;71790;-46
2023/07/14 08:58:27;;;;;;;4.60;3.00;;;;;;;24.05;100.00;100112.20;105368;1264;64399;-46
2023/07/14 09:01:22;;;;;;;4.00;2.70;;;;;;;24.17;100.00;100092.95;105387;1257;71562;-46
2023/07/14 09:03:53;;;;;;;5.70;2.50;;;;;;;24.37;100.00;100070.85;105363;1263;60646;-45
2023/07/14 09:06:40;;;;;;;3.90;2.10;;;;;;;24.35;100.00;99998.50;105229;1260;60105;-46
2023/07/14 09:09:29;;;;;;;2.60;2.30;;;;;;;24.36;100.00;99978.02;105186;1261;71821;-46
2023/07/14 09:12:22;;;;;;;4.10;2.70;;;;;;;24.39;100.00;99946.23;105362;1263;64286;-45
2023/07/14 09:15:00;;;;;;;3.20;2.80;;;;;;;24.43;100.00;99934.09;105295;1264;71266;-44
2023/07/14 09:17:34;;;;;;;3.00;2.80;;;;;;;24.40;100.00;99921.50;105452;1261;60486;-45
2023/07/14 09:20:06;;;;;;;3.20;2.80;;;;;;;24.45;100.00;99935.89;105417;1260;60464;-45
2023/07/14 09:22:52;;;;;;;3.80;3.50;;;;;;;24.51;100.00;99939.90;105288;1257;72999;-44
2023/07/14 09:25:28;;;;;;;4.40;4.10;;;;;;;24.36;100.00;99905.25;105344;1264;64404;-45
2023/07/14 09:27:56;;;;;;;4.40;4.00;;;;;;;24.23;100.00;99920.92;105223;1260;73175;-47
2023/07/14 09:42:24;;;;;;;4.90;3.70;;;;;;;24.69;100.00;99974.23;102587;1296;601146;-45
2023/07/14 09:44:57;;;;;;;3.60;3.30;;;;;;;25.22;100.00;99973.98;104867;1271;59350;-46
2023/07/14 09:47:24;;;;;;;4.00;3.60;;;;;;;25.73;100.00;99874.60;104824;1269;60038;-45
2023/07/14 09:49:57;;;;;;;5.00;2.90;;;;;;;26.10;100.00;99793.08;104684;1267;70967;-45
2023/07/14 09:52:28;;;;;;;3.90;3.20;;;;;;;26.30;100.00;99759.91;104797;1273;64416;-44
2023/07/14 09:54:57;;;;;;;3.10;2.90;;;;;;;26.54;100.00;99745.78;104521;1263;417886;-43
2023/07/14 09:57:27;;;;;;;4.10;3.20;;;;;;;26.57;100.00;99759.17;105531;1256;60062;-46
2023/07/14 10:00:21;;;;;;;4.50;4.10;;;;;;;26.46;100.00;99769.76;105740;1253;59742;-44
2023/07/14 10:02:52;;;;;;;4.60;4.20;;;;;;;26.19;100.00;99788.67;105726;1255;72176;-48
2023/07/14 10:05:44;;;;;;;5.20;4.40;;;;;;;25.88;100.00;99797.77;105734;1258;65277;-48
2023/07/14 10:08:27;;;;;;;6.00;4.90;;;;;;;25.64;100.00;99801.07;105733;1257;71746;-47
2023/07/14 10:10:57;;;;;;;6.60;6.00;;;;;;;25.59;100.00;99803.14;105810;1254;59762;-48
2023/07/14 10:13:27;;;;;;;6.50;5.70;;;;;;;25.60;100.00;99792.55;105737;1253;59714;-46
2023/07/14 10:15:57;;;;;;;5.90;5.30;;;;;;;25.74;100.00;99800.29;105710;1258;73042;-45
2023/07/14 10:18:27;;;;;;;4.60;4.30;;;;;;;25.88;100.00;99785.63;105717;1253;64009;-47
2023/07/14 10:20:58;;;;;;;5.00;4.60;;;;;;;25.87;100.00;99785.19;105860;1253;71475;-44
2023/07/14 10:23:26;;;;;;;6.80;5.20;;;;;;;25.80;100.00;99786.72;105693;1253;60038;-45
2023/07/14 10:25:54;;;;;;;7.00;4.40;;;;;;;25.50;100.00;99798.28;105809;1256;59657;-48
2023/07/14 10:28:28;;;;;;;6.20;3.90;;;;;;;25.33;100.00;99818.47;105733;1253;71840;-43
2023/07/14 10:31:02;;;;;;;5.00;3.50;;;;;;;25.25;100.00;99832.81;105635;1254;65204;-46
2023/07/14 10:33:42;;;;;;;3.50;3.00;;;;;;;25.18;100.00;99883.58;105719;1253;72716;-45
2023/07/14 10:36:17;;;;;;;2.90;2.70;;;;;;;25.07;100.00;99927.91;105675;1256;60421;-48
2023/07/14 10:38:47;;;;;;;3.90;2.90;;;;;;;24.91;100.00;99957.56;105731;1255;59643;-45
2023/07/14 10:41:16;;;;;;;3.20;3.00;;;;;;;24.54;100.00;99979.85;105590;1254;73107;-46
2023/07/14 10:43:59;;;;;;;6.20;2.70;;;;;;;24.10;100.00;100051.88;105596;1254;65236;-46
2023/07/14 10:46:32;;;;;;;3.80;3.20;;;;;;;23.71;100.00;100136.72;105687;1260;71891;-48
2023/07/14 10:49:07;;;;;;;3.70;3.40;;;;;;;23.40;100.00;100220.25;105613;1258;61599;-46
2023/07/14 10:51:56;;;;;;;;;;;;;;;23.15;100.00;100276.86;105682;1255;59551;-45
2023/07/14 10:54:34;;;;;;;7.30;3.50;;;;;;;23.03;100.00;100332.28;105577;1257;74768;-45
2023/07/14 10:57:05;;;;;;;5.20;3.70;;;;;;;23.09;100.00;100380.02;105595;1258;65091;-46
2023/07/14 10:59:37;;;;;;;4.80;4.10;;;;;;;23.25;100.00;100413.94;105617;1256;72678;-45
2023/07/14 11:02:16;;;;;;;4.60;3.60;;;;;;;23.44;100.00;100438.97;105611;1256;60440;-48
2023/07/14 11:04:47;;;;;;;8.90;3.50;;;;;;;23.54;100.00;100440.05;105556;1258;59552;-47
2023/07/14 11:07:16;;;;;;;11.70;3.90;;;;;;;23.53;100.00;100449.95;105594;1260;73015;-44
2023/07/14 11:09:45;;;;;;;7.40;5.90;;;;;;;23.44;100.00;100466.77;105635;1256;63971;-47
2023/07/14 11:12:42;;;;;;;6.40;5.70;;;;;;;23.14;100.00;100416.15;105740;1259;71441;-48
2023/07/14 11:15:12;;;;;;;6.00;5.40;;;;;;;22.67;100.00;100377.90;105782;1257;61696;-45
2023/07/14 11:17:58;;;;;;;6.30;5.80;;;;;;;22.43;100.00;100396.97;105641;1254;59705;-47
2023/07/14 11:20:37;;;;;;;7.10;5.30;;;;;;;22.23;100.00;100420.80;105596;1254;71502;-44
2023/07/14 11:23:20;;;;;;;7.60;6.90;;;;;;;22.08;100.00;100451.31;105577;1255;66800;-45
2023/07/14 11:26:10;;;;;;;7.70;7.00;;;;;;;22.02;100.00;100470.52;105577;1256;71431;-47
2023/07/14 11:29:04;;;;;;;8.00;7.10;;;;;;;22.01;100.00;100484.82;105675;1260;61650;-46
2023/07/14 11:31:57;;;;;;;8.20;7.40;;;;;;;22.08;100.00;100487.86;105718;1254;59576;-49
2023/07/14 11:34:29;;;;;;;6.80;6.40;;;;;;;22.17;100.00;100488.86;105433;1259;71818;-50